sensor_id;sensor_type;location;lat;lon;timestamp;pressure;altitude;pressure_sealevel;temperature;humidity
5691;BME280;2870;42.680;23.364;2024-03-08T00:01:02;95166.41;;;7.21;100.00
5691;BME280;2870;42.680;23.364;2024-03-08T00:03:31;95176.38;;;7.16;100.00
5691;BME280;2870;42.680;23.364;2024-03-08T00:05:59;95169.91;;;7.08;100.00
5691;BME280;2870;42.680;23.364;2024-03-08T00:08:26;95170.56;;;7.14;100.00
5691;BME280;2870;42.680;23.364;2024-03-08T00:10:53;95171.41;;;7.09;100.00
5691;BME280;2870;42.680;23.364;2024-03-08T00:13:19;95169.72;;;7.19;100.00
5691;BME280;2870;42.680;23.364;2024-03-08T00:15:47;95168.66;;;7.22;100.00
5691;BME280;2870;42.680;23.364;2024-03-08T00:18:14;95170.34;;;7.25;100.00
5691;BME280;2870;42.680;23.364;2024-03-08T00:20:42;95168.31;;;7.26;100.00
5691;BME280;2870;42.680;23.364;2024-03-08T00:23:10;95173.13;;;7.25;100.00
5691;BME280;2870;42.680;23.364;2024-03-08T00:25:40;95165.63;;;7.07;100.00
5691;BME280;2870;42.680;23.364;2024-03-08T00:28:08;95172.50;;;6.93;100.00
5691;BME280;2870;42.680;23.364;2024-03-08T00:30:39;95165.09;;;7.08;100.00
5691;BME280;2870;42.680;23.364;2024-03-08T00:33:05;95157.69;;;7.24;100.00
5691;BME280;2870;42.680;23.364;2024-03-08T00:35:33;95165.31;;;7.24;100.00
5691;BME280;2870;42.680;23.364;2024-03-08T00:38:01;95147.81;;;7.23;100.00
5691;BME280;2870;42.680;23.364;2024-03-08T00:40:28;95157.59;;;7.30;100.00
5691;BME280;2870;42.680;23.364;2024-03-08T00:42:55;95153.19;;;7.21;100.00
5691;BME280;2870;42.680;23.364;2024-03-08T00:45:22;95147.81;;;6.97;100.00
5691;BME280;2870;42.680;23.364;2024-03-08T00:47:50;95144.63;;;6.93;100.00
5691;BME280;2870;42.680;23.364;2024-03-08T00:50:17;95150.59;;;6.83;100.00
5691;BME280;2870;42.680;23.364;2024-03-08T00:52:45;95148.75;;;6.86;100.00
5691;BME280;2870;42.680;23.364;2024-03-08T00:55:13;95146.97;;;6.88;100.00
5691;BME280;2870;42.680;23.364;2024-03-08T00:57:41;95140.50;;;6.80;100.00
5691;BME280;2870;42.680;23.364;2024-03-08T01:00:08;95139.00;;;6.79;100.00
5691;BME280;2870;42.680;23.364;2024-03-08T01:02:38;95140.69;;;6.69;100.00
5691;BME280;2870;42.680;23.364;2024-03-08T01:05:05;95138.78;;;6.64;100.00
5691;BME280;2870;42.680;23.364;2024-03-08T01:07:33;95132.03;;;6.59;100.00
5691;BME280;2870;42.680;23.364;2024-03-08T01:10:01;95123.75;;;6.54;100.00
5691;BME280;2870;42.680;23.364;2024-03-08T01:12:30;95126.63;;;6.48;100.00
5691;BME280;2870;42.680;23.364;2024-03-08T01:14:57;95126.94;;;6.45;100.00
5691;BME280;2870;42.680;23.364;2024-03-08T01:17:24;95123.41;;;6.57;100.00
5691;BME280;2870;42.680;23.364;2024-03-08T01:19:51;95121.53;;;6.79;100.00
5691;BME280;2870;42.680;23.364;2024-03-08T01:22:19;95119.50;;;6.79;100.00
5691;BME280;2870;42.680;23.364;2024-03-08T01:24:46;95111.97;;;6.61;100.00
5691;BME280;2870;42.680;23.364;2024-03-08T01:27:14;95112.19;;;6.63;100.00
5691;BME280;2870;42.680;23.364;2024-03-08T01:29:42;95104.25;;;6.67;100.00
5691;BME280;2870;42.680;23.364;2024-03-08T01:32:10;95110.91;;;6.64;100.00
5691;BME280;2870;42.680;23.364;2024-03-08T01:34:37;95108.34;;;6.66;100.00
5691;BME280;2870;42.680;23.364;2024-03-08T01:37:05;95108.63;;;6.62;100.00
5691;BME280;2870;42.680;23.364;2024-03-08T01:39:32;95104.91;;;6.60;100.00
5691;BME280;2870;42.680;23.364;2024-03-08T01:41:59;95104.56;;;6.50;100.00
5691;BME280;2870;42.680;23.364;2024-03-08T01:44:27;95115.50;;;6.75;100.00
5691;BME280;2870;42.680;23.364;2024-03-08T01:46:55;95110.91;;;6.64;100.00
5691;BME280;2870;42.680;23.364;2024-03-08T01:49:24;95105.00;;;6.54;100.00
5691;BME280;2870;42.680;23.364;2024-03-08T01:51:54;95102.00;;;6.52;100.00
5691;BME280;2870;42.680;23.364;2024-03-08T01:54:23;95105.09;;;6.62;100.00
5691;BME280;2870;42.680;23.364;2024-03-08T01:56:51;95104.78;;;6.52;100.00
5691;BME280;2870;42.680;23.364;2024-03-08T01:59:19;95096.28;;;6.45;100.00
5691;BME280;2870;42.680;23.364;2024-03-08T02:01:46;95096.72;;;6.49;100.00
5691;BME280;2870;42.680;23.364;2024-03-08T02:04:15;95092.75;;;6.57;100.00
5691;BME280;2870;42.680;23.364;2024-03-08T02:06:42;95081.91;;;6.41;100.00
5691;BME280;2870;42.680;23.364;2024-03-08T02:09:08;95094.13;;;6.37;100.00
5691;BME280;2870;42.680;23.364;2024-03-08T02:11:36;95093.03;;;6.27;100.00
5691;BME280;2870;42.680;23.364;2024-03-08T02:14:03;95102.06;;;6.33;100.00
5691;BME280;2870;42.680;23.364;2024-03-08T02:16:31;95094.25;;;6.45;100.00
5691;BME280;2870;42.680;23.364;2024-03-08T02:18:59;95103.59;;;6.61;100.00
5691;BME280;2870;42.680;23.364;2024-03-08T02:21:28;95090.72;;;6.58;100.00
5691;BME280;2870;42.680;23.364;2024-03-08T02:23:56;95101.81;;;6.77;100.00
5691;BME280;2870;42.680;23.364;2024-03-08T02:26:23;95105.34;;;6.64;100.00
5691;BME280;2870;42.680;23.364;2024-03-08T02:28:51;95106.28;;;6.53;100.00
5691;BME280;2870;42.680;23.364;2024-03-08T02:31:18;95106.50;;;6.69;100.00
5691;BME280;2870;42.680;23.364;2024-03-08T02:33:45;95110.56;;;6.68;100.00
5691;BME280;2870;42.680;23.364;2024-03-08T02:36:13;95103.94;;;6.71;100.00
5691;BME280;2870;42.680;23.364;2024-03-08T02:38:42;95103.78;;;6.36;100.00
5691;BME280;2870;42.680;23.364;2024-03-08T02:41:09;95112.72;;;6.61;100.00
5691;BME280;2870;42.680;23.364;2024-03-08T02:43:36;95127.09;;;6.66;100.00
5691;BME280;2870;42.680;23.364;2024-03-08T02:46:04;95114.97;;;6.63;100.00
5691;BME280;2870;42.680;23.364;2024-03-08T02:48:31;95120.56;;;6.89;100.00
5691;BME280;2870;42.680;23.364;2024-03-08T02:50:59;95107.44;;;6.58;100.00
5691;BME280;2870;42.680;23.364;2024-03-08T02:53:27;95116.53;;;6.45;100.00
5691;BME280;2870;42.680;23.364;2024-03-08T02:55:56;95124.38;;;6.47;100.00
5691;BME280;2870;42.680;23.364;2024-03-08T02:58:23;95116.88;;;6.55;100.00
5691;BME280;2870;42.680;23.364;2024-03-08T03:03:58;95113.91;;;6.21;100.00
5691;BME280;2870;42.680;23.364;2024-03-08T03:06:25;95115.13;;;6.25;100.00
5691;BME280;2870;42.680;23.364;2024-03-08T03:08:51;95114.69;;;6.34;99.90
5691;BME280;2870;42.680;23.364;2024-03-08T03:11:19;95123.94;;;6.10;100.00
5691;BME280;2870;42.680;23.364;2024-03-08T03:13:47;95110.59;;;6.22;100.00
5691;BME280;2870;42.680;23.364;2024-03-08T03:16:17;95113.00;;;6.31;99.62
5691;BME280;2870;42.680;23.364;2024-03-08T03:18:45;95127.00;;;6.26;99.37
5691;BME280;2870;42.680;23.364;2024-03-08T03:21:12;95128.19;;;6.30;99.47
5691;BME280;2870;42.680;23.364;2024-03-08T03:23:41;95126.25;;;6.25;100.00
5691;BME280;2870;42.680;23.364;2024-03-08T03:26:07;95124.31;;;6.20;99.61
5691;BME280;2870;42.680;23.364;2024-03-08T03:28:37;95127.94;;;6.15;99.24
5691;BME280;2870;42.680;23.364;2024-03-08T03:31:06;95129.59;;;6.05;99.60
5691;BME280;2870;42.680;23.364;2024-03-08T03:33:32;95130.63;;;6.21;98.33
5691;BME280;2870;42.680;23.364;2024-03-08T03:36:02;95139.34;;;6.30;100.00
5691;BME280;2870;42.680;23.364;2024-03-08T03:38:30;95141.28;;;6.35;100.00
5691;BME280;2870;42.680;23.364;2024-03-08T03:40:57;95135.00;;;6.16;96.89
5691;BME280;2870;42.680;23.364;2024-03-08T03:43:29;95143.63;;;6.31;98.67
5691;BME280;2870;42.680;23.364;2024-03-08T03:45:58;95143.66;;;6.45;99.50
5691;BME280;2870;42.680;23.364;2024-03-08T03:48:24;95150.31;;;6.42;98.75
5691;BME280;2870;42.680;23.364;2024-03-08T03:50:51;95145.59;;;6.36;97.43
5691;BME280;2870;42.680;23.364;2024-03-08T03:53:18;95149.41;;;6.33;98.74
5691;BME280;2870;42.680;23.364;2024-03-08T03:55:45;95118.28;;;6.16;100.00
5691;BME280;2870;42.680;23.364;2024-03-08T03:58:12;95157.56;;;6.31;100.00
5691;BME280;2870;42.680;23.364;2024-03-08T04:00:38;95149.88;;;6.37;100.00
5691;BME280;2870;42.680;23.364;2024-03-08T04:03:07;95159.91;;;6.27;97.96
5691;BME280;2870;42.680;23.364;2024-03-08T04:05:34;95164.09;;;6.34;98.84
5691;BME280;2870;42.680;23.364;2024-03-08T04:08:00;95163.34;;;6.33;98.77
5691;BME280;2870;42.680;23.364;2024-03-08T04:10:28;95165.16;;;6.31;100.00
5691;BME280;2870;42.680;23.364;2024-03-08T04:12:54;95171.41;;;6.18;100.00
5691;BME280;2870;42.680;23.364;2024-03-08T04:15:22;95165.50;;;6.08;100.00
5691;BME280;2870;42.680;23.364;2024-03-08T04:17:49;95167.00;;;6.09;100.00
5691;BME280;2870;42.680;23.364;2024-03-08T04:20:17;95167.84;;;6.04;99.12
5691;BME280;2870;42.680;23.364;2024-03-08T04:22:43;95176.28;;;5.99;99.40
5691;BME280;2870;42.680;23.364;2024-03-08T04:25:14;95176.28;;;5.99;99.24
5691;BME280;2870;42.680;23.364;2024-03-08T04:27:41;95180.94;;;6.09;99.90
5691;BME280;2870;42.680;23.364;2024-03-08T04:30:08;95182.50;;;6.05;100.00
5691;BME280;2870;42.680;23.364;2024-03-08T04:32:35;95189.66;;;6.00;100.00
5691;BME280;2870;42.680;23.364;2024-03-08T04:35:03;95186.03;;;5.87;100.00
5691;BME280;2870;42.680;23.364;2024-03-08T04:37:31;95190.84;;;5.67;100.00
5691;BME280;2870;42.680;23.364;2024-03-08T04:39:58;95193.94;;;5.64;100.00
5691;BME280;2870;42.680;23.364;2024-03-08T04:42:25;95203.03;;;5.83;100.00
5691;BME280;2870;42.680;23.364;2024-03-08T04:44:54;95195.31;;;5.95;100.00
5691;BME280;2870;42.680;23.364;2024-03-08T04:47:20;95203.75;;;6.08;100.00
5691;BME280;2870;42.680;23.364;2024-03-08T04:49:47;95195.91;;;6.06;100.00
5691;BME280;2870;42.680;23.364;2024-03-08T04:52:15;95199.69;;;6.09;100.00
5691;BME280;2870;42.680;23.364;2024-03-08T04:54:44;95195.00;;;6.17;100.00
5691;BME280;2870;42.680;23.364;2024-03-08T04:57:11;95206.59;;;6.21;100.00
5691;BME280;2870;42.680;23.364;2024-03-08T04:59:37;95200.81;;;6.19;100.00
5691;BME280;2870;42.680;23.364;2024-03-08T05:02:04;95206.97;;;6.31;100.00
5691;BME280;2870;42.680;23.364;2024-03-08T05:04:32;95207.25;;;6.27;100.00
5691;BME280;2870;42.680;23.364;2024-03-08T05:06:59;95206.53;;;6.08;100.00
5691;BME280;2870;42.680;23.364;2024-03-08T05:09:26;95208.91;;;6.17;100.00
5691;BME280;2870;42.680;23.364;2024-03-08T05:11:58;95206.91;;;6.50;100.00
5691;BME280;2870;42.680;23.364;2024-03-08T05:14:25;95216.66;;;6.43;100.00
5691;BME280;2870;42.680;23.364;2024-03-08T05:16:52;95223.59;;;6.18;100.00
5691;BME280;2870;42.680;23.364;2024-03-08T05:19:19;95225.47;;;6.28;100.00
5691;BME280;2870;42.680;23.364;2024-03-08T05:21:46;95221.63;;;6.31;100.00
5691;BME280;2870;42.680;23.364;2024-03-08T05:24:14;95225.03;;;6.24;100.00
5691;BME280;2870;42.680;23.364;2024-03-08T05:26:41;95236.94;;;6.25;100.00
5691;BME280;2870;42.680;23.364;2024-03-08T05:29:09;95238.50;;;6.20;100.00
5691;BME280;2870;42.680;23.364;2024-03-08T05:31:42;95245.19;;;6.11;100.00
5691;BME280;2870;42.680;23.364;2024-03-08T05:34:12;95247.31;;;6.24;100.00
5691;BME280;2870;42.680;23.364;2024-03-08T05:36:39;95259.06;;;6.36;100.00
5691;BME280;2870;42.680;23.364;2024-03-08T05:39:06;95222.88;;;5.98;100.00
5691;BME280;2870;42.680;23.364;2024-03-08T05:41:34;95253.56;;;6.30;100.00
5691;BME280;2870;42.680;23.364;2024-03-08T05:44:00;95264.03;;;6.24;100.00
5691;BME280;2870;42.680;23.364;2024-03-08T05:46:29;95262.50;;;6.23;100.00
5691;BME280;2870;42.680;23.364;2024-03-08T05:48:56;95266.31;;;5.82;100.00
5691;BME280;2870;42.680;23.364;2024-03-08T05:51:24;95268.38;;;5.57;100.00
5691;BME280;2870;42.680;23.364;2024-03-08T05:53:52;95270.16;;;5.79;100.00
5691;BME280;2870;42.680;23.364;2024-03-08T05:56:21;95266.56;;;5.84;100.00
5691;BME280;2870;42.680;23.364;2024-03-08T05:58:48;95274.38;;;5.86;100.00
5691;BME280;2870;42.680;23.364;2024-03-08T06:01:15;95281.28;;;5.79;100.00
5691;BME280;2870;42.680;23.364;2024-03-08T06:03:43;95281.41;;;5.93;100.00
5691;BME280;2870;42.680;23.364;2024-03-08T06:06:11;95295.53;;;5.95;100.00
5691;BME280;2870;42.680;23.364;2024-03-08T06:08:38;95287.75;;;5.88;100.00
5691;BME280;2870;42.680;23.364;2024-03-08T06:11:05;95281.78;;;5.78;100.00
5691;BME280;2870;42.680;23.364;2024-03-08T06:13:32;95283.16;;;5.71;100.00
5691;BME280;2870;42.680;23.364;2024-03-08T06:15:59;95302.31;;;5.99;100.00
5691;BME280;2870;42.680;23.364;2024-03-08T06:18:26;95292.25;;;6.15;100.00
5691;BME280;2870;42.680;23.364;2024-03-08T06:20:54;95296.16;;;6.06;100.00
5691;BME280;2870;42.680;23.364;2024-03-08T06:23:21;95304.47;;;5.88;100.00
5691;BME280;2870;42.680;23.364;2024-03-08T06:25:47;95300.53;;;6.02;100.00
5691;BME280;2870;42.680;23.364;2024-03-08T06:28:14;95298.97;;;6.25;100.00
5691;BME280;2870;42.680;23.364;2024-03-08T06:30:42;95306.78;;;6.27;99.59
5691;BME280;2870;42.680;23.364;2024-03-08T06:33:08;95311.63;;;6.26;96.91
5691;BME280;2870;42.680;23.364;2024-03-08T06:35:36;95307.09;;;6.42;95.98
5691;BME280;2870;42.680;23.364;2024-03-08T06:38:04;95313.63;;;6.45;94.78
5691;BME280;2870;42.680;23.364;2024-03-08T06:40:31;95309.56;;;6.27;94.53
5691;BME280;2870;42.680;23.364;2024-03-08T06:42:58;95313.63;;;6.45;94.34
5691;BME280;2870;42.680;23.364;2024-03-08T06:45:24;95311.91;;;6.60;94.10
5691;BME280;2870;42.680;23.364;2024-03-08T06:47:51;95319.09;;;6.69;94.11
5691;BME280;2870;42.680;23.364;2024-03-08T06:50:20;95316.78;;;5.98;94.92
5691;BME280;2870;42.680;23.364;2024-03-08T06:52:46;95316.19;;;5.80;96.74
5691;BME280;2870;42.680;23.364;2024-03-08T06:55:20;95280.16;;;5.45;98.49
5691;BME280;2870;42.680;23.364;2024-03-08T06:57:47;95321.41;;;6.14;97.74
5691;BME280;2870;42.680;23.364;2024-03-08T07:00:14;95318.22;;;6.04;96.52
5691;BME280;2870;42.680;23.364;2024-03-08T07:02:43;95328.94;;;6.19;96.79
5691;BME280;2870;42.680;23.364;2024-03-08T07:05:11;95322.16;;;6.33;96.48
5691;BME280;2870;42.680;23.364;2024-03-08T07:07:38;95319.28;;;6.20;97.60
5691;BME280;2870;42.680;23.364;2024-03-08T07:10:07;95330.75;;;6.54;97.64
5691;BME280;2870;42.680;23.364;2024-03-08T07:12:37;95322.16;;;6.33;94.09
5691;BME280;2870;42.680;23.364;2024-03-08T07:15:05;95319.28;;;6.20;95.55
5691;BME280;2870;42.680;23.364;2024-03-08T07:17:32;95333.56;;;5.92;94.10
5691;BME280;2870;42.680;23.364;2024-03-08T07:20:00;95334.41;;;5.81;95.08
5691;BME280;2870;42.680;23.364;2024-03-08T07:22:31;95336.00;;;6.39;95.43
5691;BME280;2870;42.680;23.364;2024-03-08T07:24:58;95332.25;;;6.55;93.75
5691;BME280;2870;42.680;23.364;2024-03-08T07:27:44;95339.84;;;6.55;92.50
5691;BME280;2870;42.680;23.364;2024-03-08T07:30:11;95337.88;;;6.50;92.92
5691;BME280;2870;42.680;23.364;2024-03-08T07:32:58;95336.53;;;6.75;94.01
5691;BME280;2870;42.680;23.364;2024-03-08T07:35:24;95334.53;;;6.89;91.61
5691;BME280;2870;42.680;23.364;2024-03-08T07:37:52;95342.47;;;7.17;92.12
5691;BME280;2870;42.680;23.364;2024-03-08T07:40:20;95348.84;;;6.99;91.84
5691;BME280;2870;42.680;23.364;2024-03-08T07:42:48;95339.28;;;7.26;92.89
5691;BME280;2870;42.680;23.364;2024-03-08T07:45:15;95343.56;;;6.95;91.55
5691;BME280;2870;42.680;23.364;2024-03-08T07:47:42;95345.47;;;6.87;92.88
5691;BME280;2870;42.680;23.364;2024-03-08T07:50:09;95347.72;;;6.88;94.52
5691;BME280;2870;42.680;23.364;2024-03-08T07:52:36;95346.16;;;6.74;94.46
5691;BME280;2870;42.680;23.364;2024-03-08T07:55:03;95344.28;;;6.45;95.78
5691;BME280;2870;42.680;23.364;2024-03-08T07:57:31;95339.47;;;7.15;95.83
5691;BME280;2870;42.680;23.364;2024-03-08T08:00:00;95340.16;;;7.34;94.55
5691;BME280;2870;42.680;23.364;2024-03-08T08:02:27;95338.00;;;7.27;92.66
5691;BME280;2870;42.680;23.364;2024-03-08T08:04:53;95347.66;;;7.26;92.17
5691;BME280;2870;42.680;23.364;2024-03-08T08:07:20;95339.09;;;7.05;93.14
5691;BME280;2870;42.680;23.364;2024-03-08T08:09:48;95341.81;;;7.11;91.82
5691;BME280;2870;42.680;23.364;2024-03-08T08:12:15;95350.94;;;7.25;89.86
5691;BME280;2870;42.680;23.364;2024-03-08T08:14:41;95339.31;;;7.39;89.18
5691;BME280;2870;42.680;23.364;2024-03-08T08:17:10;95339.75;;;7.43;91.61
5691;BME280;2870;42.680;23.364;2024-03-08T08:19:37;95340.81;;;7.54;90.52
5691;BME280;2870;42.680;23.364;2024-03-08T08:22:04;95333.78;;;7.21;90.15
5691;BME280;2870;42.680;23.364;2024-03-08T08:24:34;95336.25;;;7.83;87.42
5691;BME280;2870;42.680;23.364;2024-03-08T08:27:02;95336.78;;;7.68;87.23
5691;BME280;2870;42.680;23.364;2024-03-08T08:29:29;95340.00;;;7.72;85.75
5691;BME280;2870;42.680;23.364;2024-03-08T08:31:57;95341.47;;;7.47;85.39
5691;BME280;2870;42.680;23.364;2024-03-08T08:34:26;95343.66;;;7.80;86.73
5691;BME280;2870;42.680;23.364;2024-03-08T08:36:52;95341.72;;;7.75;83.52
5691;BME280;2870;42.680;23.364;2024-03-08T08:39:18;95351.91;;;8.39;84.86
5691;BME280;2870;42.680;23.364;2024-03-08T08:41:48;95295.63;;;8.56;81.47
5691;BME280;2870;42.680;23.364;2024-03-08T08:44:14;95340.75;;;8.73;81.97
5691;BME280;2870;42.680;23.364;2024-03-08T08:46:41;95340.09;;;8.80;81.08
5691;BME280;2870;42.680;23.364;2024-03-08T08:49:08;95332.16;;;10.04;79.94
5691;BME280;2870;42.680;23.364;2024-03-08T08:51:37;95335.03;;;10.40;76.16
5691;BME280;2870;42.680;23.364;2024-03-08T08:54:04;95334.38;;;10.63;76.24
5691;BME280;2870;42.680;23.364;2024-03-08T08:56:31;95329.88;;;10.23;72.60
5691;BME280;2870;42.680;23.364;2024-03-08T08:58:58;95343.44;;;9.83;74.31
5691;BME280;2870;42.680;23.364;2024-03-08T09:01:25;95341.03;;;9.38;75.76
5691;BME280;2870;42.680;23.364;2024-03-08T09:03:52;95334.19;;;9.96;72.34
5691;BME280;2870;42.680;23.364;2024-03-08T09:06:19;95330.75;;;10.18;73.96
5691;BME280;2870;42.680;23.364;2024-03-08T09:08:47;95335.53;;;10.75;75.16
5691;BME280;2870;42.680;23.364;2024-03-08T09:11:14;95336.97;;;10.60;72.26
5691;BME280;2870;42.680;23.364;2024-03-08T09:13:40;95327.53;;;10.94;68.03
5691;BME280;2870;42.680;23.364;2024-03-08T09:16:07;95324.19;;;12.26;70.23
5691;BME280;2870;42.680;23.364;2024-03-08T09:18:36;95333.09;;;12.95;66.18
5691;BME280;2870;42.680;23.364;2024-03-08T09:21:03;95325.94;;;11.75;68.19
5691;BME280;2870;42.680;23.364;2024-03-08T09:23:30;95330.94;;;12.78;69.98
5691;BME280;2870;42.680;23.364;2024-03-08T09:25:58;95334.44;;;13.26;66.41
5691;BME280;2870;42.680;23.364;2024-03-08T09:28:25;95327.69;;;12.41;63.83
5691;BME280;2870;42.680;23.364;2024-03-08T09:30:52;95326.47;;;11.12;66.85
5691;BME280;2870;42.680;23.364;2024-03-08T09:33:20;95321.63;;;11.44;70.67
5691;BME280;2870;42.680;23.364;2024-03-08T09:35:47;95329.28;;;13.08;67.09
5691;BME280;2870;42.680;23.364;2024-03-08T09:38:14;95336.06;;;14.47;60.30
5691;BME280;2870;42.680;23.364;2024-03-08T09:40:41;95332.09;;;13.90;58.59
5691;BME280;2870;42.680;23.364;2024-03-08T09:43:09;95335.13;;;13.02;59.32
5691;BME280;2870;42.680;23.364;2024-03-08T09:45:37;95331.03;;;12.55;62.16
5691;BME280;2870;42.680;23.364;2024-03-08T09:48:10;95333.22;;;12.64;60.25
5691;BME280;2870;42.680;23.364;2024-03-08T09:50:39;95330.41;;;12.64;60.66
5691;BME280;2870;42.680;23.364;2024-03-08T09:53:06;95331.53;;;11.67;61.98
5691;BME280;2870;42.680;23.364;2024-03-08T09:55:34;95323.84;;;11.45;63.21
5691;BME280;2870;42.680;23.364;2024-03-08T09:58:05;95330.53;;;11.04;62.78
5691;BME280;2870;42.680;23.364;2024-03-08T10:00:51;95330.50;;;10.37;67.03
5691;BME280;2870;42.680;23.364;2024-03-08T10:03:19;95325.63;;;10.01;69.86
5691;BME280;2870;42.680;23.364;2024-03-08T10:05:46;95331.19;;;11.63;75.05
5691;BME280;2870;42.680;23.364;2024-03-08T10:08:12;95324.03;;;11.78;67.83
5691;BME280;2870;42.680;23.364;2024-03-08T10:10:39;95324.97;;;11.96;61.56
5691;BME280;2870;42.680;23.364;2024-03-08T10:13:06;95323.69;;;11.66;65.66
5691;BME280;2870;42.680;23.364;2024-03-08T10:15:33;95333.22;;;11.71;62.33
5691;BME280;2870;42.680;23.364;2024-03-08T10:18:01;95327.81;;;11.88;62.83
5691;BME280;2870;42.680;23.364;2024-03-08T10:20:30;95325.94;;;11.52;63.62
5691;BME280;2870;42.680;23.364;2024-03-08T10:22:58;95326.59;;;12.37;63.71
5691;BME280;2870;42.680;23.364;2024-03-08T10:25:26;95287.97;;;12.37;64.50
5691;BME280;2870;42.680;23.364;2024-03-08T10:27:53;95315.53;;;12.79;63.24
5691;BME280;2870;42.680;23.364;2024-03-08T10:30:19;95316.31;;;12.16;60.06
5691;BME280;2870;42.680;23.364;2024-03-08T10:32:47;95318.81;;;11.51;65.54
5691;BME280;2870;42.680;23.364;2024-03-08T10:35:15;95313.38;;;11.30;65.73
5691;BME280;2870;42.680;23.364;2024-03-08T10:37:45;95314.88;;;11.54;64.01
5691;BME280;2870;42.680;23.364;2024-03-08T10:40:16;95316.56;;;11.80;63.71
5691;BME280;2870;42.680;23.364;2024-03-08T10:42:51;95306.63;;;11.56;61.09
5691;BME280;2870;42.680;23.364;2024-03-08T10:45:26;95304.75;;;11.21;65.94
5691;BME280;2870;42.680;23.364;2024-03-08T10:48:07;95311.19;;;10.70;68.67
5691;BME280;2870;42.680;23.364;2024-03-08T10:50:38;95311.50;;;10.51;69.17
5691;BME280;2870;42.680;23.364;2024-03-08T10:53:06;95292.56;;;11.03;69.03
5691;BME280;2870;42.680;23.364;2024-03-08T10:55:33;95303.47;;;11.37;67.84
5691;BME280;2870;42.680;23.364;2024-03-08T10:58:00;95300.00;;;12.23;61.98
5691;BME280;2870;42.680;23.364;2024-03-08T11:00:27;95299.34;;;11.84;62.85
5691;BME280;2870;42.680;23.364;2024-03-08T11:02:54;95289.97;;;11.28;66.87
5691;BME280;2870;42.680;23.364;2024-03-08T11:05:38;95289.56;;;11.08;64.04
5691;BME280;2870;42.680;23.364;2024-03-08T11:08:16;95286.97;;;11.18;63.13
5691;BME280;2870;42.680;23.364;2024-03-08T11:10:48;95278.44;;;10.57;64.54
5691;BME280;2870;42.680;23.364;2024-03-08T11:13:36;95279.84;;;11.09;64.29
5691;BME280;2870;42.680;23.364;2024-03-08T11:16:07;95279.81;;;10.94;64.77
5691;BME280;2870;42.680;23.364;2024-03-08T11:18:35;95275.97;;;10.53;65.50
5691;BME280;2870;42.680;23.364;2024-03-08T11:21:04;95279.81;;;10.94;65.10
5691;BME280;2870;42.680;23.364;2024-03-08T11:23:32;95284.59;;;10.55;66.92
5691;BME280;2870;42.680;23.364;2024-03-08T11:25:59;95271.22;;;11.23;68.26
5691;BME280;2870;42.680;23.364;2024-03-08T11:28:25;95271.22;;;11.76;64.61
5691;BME280;2870;42.680;23.364;2024-03-08T11:31:24;95269.72;;;11.83;65.11
5691;BME280;2870;42.680;23.364;2024-03-08T11:33:52;95272.56;;;11.22;63.23
5691;BME280;2870;42.680;23.364;2024-03-08T11:36:22;95269.88;;;10.78;64.13
5691;BME280;2870;42.680;23.364;2024-03-08T11:38:50;95266.47;;;10.64;62.17
5691;BME280;2870;42.680;23.364;2024-03-08T11:41:18;95258.94;;;9.71;65.88
5691;BME280;2870;42.680;23.364;2024-03-08T11:43:46;95264.88;;;9.96;66.68
5691;BME280;2870;42.680;23.364;2024-03-08T11:46:14;95255.06;;;10.62;65.81
5691;BME280;2870;42.680;23.364;2024-03-08T11:48:42;95254.28;;;10.46;64.58
5691;BME280;2870;42.680;23.364;2024-03-08T11:51:11;95259.63;;;11.03;63.05
5691;BME280;2870;42.680;23.364;2024-03-08T11:53:40;95258.69;;;11.31;59.80
5691;BME280;2870;42.680;23.364;2024-03-08T11:56:08;95256.28;;;11.12;58.86
5691;BME280;2870;42.680;23.364;2024-03-08T11:58:35;95258.50;;;10.91;59.63
5691;BME280;2870;42.680;23.364;2024-03-08T12:01:03;95252.91;;;11.52;59.69
5691;BME280;2870;42.680;23.364;2024-03-08T12:03:31;95254.69;;;12.03;60.77
5691;BME280;2870;42.680;23.364;2024-03-08T12:05:59;95259.00;;;12.04;58.72
5691;BME280;2870;42.680;23.364;2024-03-08T12:08:26;95260.53;;;11.67;60.68
5691;BME280;2870;42.680;23.364;2024-03-08T12:10:56;95253.63;;;11.83;59.02
5691;BME280;2870;42.680;23.364;2024-03-08T12:13:25;95243.84;;;11.77;59.46
5691;BME280;2870;42.680;23.364;2024-03-08T12:15:55;95258.59;;;12.08;60.62
5691;BME280;2870;42.680;23.364;2024-03-08T12:18:24;95256.41;;;11.68;57.98
5691;BME280;2870;42.680;23.364;2024-03-08T12:20:54;95259.56;;;11.80;57.84
5691;BME280;2870;42.680;23.364;2024-03-08T12:23:32;95248.22;;;11.47;56.72
5691;BME280;2870;42.680;23.364;2024-03-08T12:26:10;95253.63;;;10.92;59.67
5691;BME280;2870;42.680;23.364;2024-03-08T12:28:38;95252.13;;;11.06;60.16
5691;BME280;2870;42.680;23.364;2024-03-08T12:31:06;95258.88;;;11.33;59.46
5691;BME280;2870;42.680;23.364;2024-03-08T12:33:35;95242.59;;;10.94;60.36
5691;BME280;2870;42.680;23.364;2024-03-08T12:36:02;95242.03;;;10.95;59.50
5691;BME280;2870;42.680;23.364;2024-03-08T12:38:32;95242.78;;;11.34;59.22
5691;BME280;2870;42.680;23.364;2024-03-08T12:41:01;95235.47;;;10.93;61.51
5691;BME280;2870;42.680;23.364;2024-03-08T12:43:29;95220.31;;;11.34;60.76
5691;BME280;2870;42.680;23.364;2024-03-08T12:45:57;95231.91;;;11.68;59.76
5691;BME280;2870;42.680;23.364;2024-03-08T12:48:23;95235.22;;;11.98;58.78
5691;BME280;2870;42.680;23.364;2024-03-08T12:50:50;95238.25;;;11.69;58.26
5691;BME280;2870;42.680;23.364;2024-03-08T12:53:17;95236.44;;;11.18;58.52
5691;BME280;2870;42.680;23.364;2024-03-08T12:55:44;95235.13;;;11.27;58.82
5691;BME280;2870;42.680;23.364;2024-03-08T12:58:10;95228.94;;;11.05;60.81
5691;BME280;2870;42.680;23.364;2024-03-08T13:00:38;95229.97;;;10.49;61.27
5691;BME280;2870;42.680;23.364;2024-03-08T13:03:08;95230.59;;;10.78;60.90
5691;BME280;2870;42.680;23.364;2024-03-08T13:05:36;95229.28;;;10.86;60.56
5691;BME280;2870;42.680;23.364;2024-03-08T13:08:05;95232.88;;;11.18;59.96
5691;BME280;2870;42.680;23.364;2024-03-08T13:10:37;95229.66;;;10.83;61.82
5691;BME280;2870;42.680;23.364;2024-03-08T13:13:04;95234.91;;;10.86;59.68
5691;BME280;2870;42.680;23.364;2024-03-08T13:15:31;95232.50;;;10.24;61.80
5691;BME280;2870;42.680;23.364;2024-03-08T13:18:00;95234.13;;;10.71;59.80
5691;BME280;2870;42.680;23.364;2024-03-08T13:20:28;95225.31;;;10.44;59.93
5691;BME280;2870;42.680;23.364;2024-03-08T13:22:55;95231.19;;;10.92;58.90